Time;durP1;ratioP1;P1;durP2;ratioP2;P2;SDS_P1;SDS_P2;PMS_P1;PMS_P2;Temp;Humidity;BMP_temperature;BMP_pressure;BME280_temperature;BME280_humidity;BME280_pressure;Samples;Min_cycle;Max_cycle;Signal;HPM_P1;HPM_P2
2024/02/10 00:01:46;;;;;;;6.47;3.50;;;;;;;;;;5076795;28;20031;-76
2024/02/10 00:04:13;;;;;;;7.93;4.43;;;;;;;;;;5076803;28;20043;-76
2024/02/10 00:06:39;;;;;;;5.50;3.42;;;;;;;;;;5068701;28;20036;-76
2024/02/10 00:09:07;;;;;;;6.70;3.30;;;;;;;;;;5075370;28;20489;-76
2024/02/10 00:11:33;;;;;;;7.90;4.13;;;;;;;;;;5073608;28;20028;-76
2024/02/10 00:13:58;;;;;;;5.78;3.47;;;;;;;;;;5069290;28;20107;-76
2024/02/10 00:16:26;;;;;;;6.57;3.25;;;;;;;;;;5069932;28;20028;-76
2024/02/10 00:18:52;;;;;;;7.10;3.75;;;;;;;;;;5068324;28;20033;-76
2024/02/10 00:21:20;;;;;;;7.40;3.80;;;;;;;;;;5074565;28;20380;-76
2024/02/10 00:23:47;;;;;;;7.72;4.18;;;;;;;;;;5078128;28;20035;-76
2024/02/10 00:26:12;;;;;;;5.97;3.63;;;;;;;;;;5069244;28;20132;-76
2024/02/10 00:28:38;;;;;;;10.52;4.47;;;;;;;;;;5069823;28;20504;-76
2024/02/10 00:31:03;;;;;;;8.20;4.75;;;;;;;;;;5075331;28;20052;-76
2024/02/10 00:33:29;;;;;;;7.00;4.22;;;;;;;;;;5075977;28;20036;-76
2024/02/10 00:35:54;;;;;;;10.15;4.93;;;;;;;;;;5073242;28;20435;-76
2024/02/10 00:38:21;;;;;;;7.10;4.47;;;;;;;;;;5069667;28;20078;-76
2024/02/10 00:40:47;;;;;;;10.20;5.35;;;;;;;;;;5075451;28;20780;-76
2024/02/10 00:43:12;;;;;;;8.57;5.20;;;;;;;;;;5069466;28;20052;-76
2024/02/10 00:45:38;;;;;;;9.30;5.43;;;;;;;;;;5069303;28;20029;-76
2024/02/10 00:48:03;;;;;;;9.90;6.53;;;;;;;;;;5070244;28;20045;-76
2024/02/10 00:50:29;;;;;;;8.25;4.72;;;;;;;;;;5076639;28;20102;-76
2024/02/10 00:52:55;;;;;;;8.68;6.03;;;;;;;;;;5073053;28;20044;-76
2024/02/10 00:55:30;;;;;;;9.10;5.10;;;;;;;;;;5078293;28;20028;-76
2024/02/10 00:57:55;;;;;;;8.07;4.95;;;;;;;;;;5073084;28;20674;-76
2024/02/10 01:00:21;;;;;;;10.77;6.07;;;;;;;;;;5075445;28;20036;-76
2024/02/10 01:02:47;;;;;;;7.63;5.18;;;;;;;;;;5081509;28;20507;-76
2024/02/10 01:05:12;;;;;;;8.90;5.88;;;;;;;;;;5072500;28;20113;-76
2024/02/10 01:07:39;;;;;;;9.43;5.57;;;;;;;;;;5072973;28;20039;-76
2024/02/10 01:10:07;;;;;;;8.50;5.60;;;;;;;;;;5072214;28;20033;-76
2024/02/10 01:12:32;;;;;;;8.35;5.53;;;;;;;;;;5078306;28;20021;-76
2024/02/10 01:14:58;;;;;;;8.63;6.03;;;;;;;;;;5072215;28;20131;-76
2024/02/10 01:17:24;;;;;;;12.43;6.90;;;;;;;;;;5072726;28;20551;-76
2024/02/10 01:19:50;;;;;;;10.75;6.55;;;;;;;;;;5072225;28;20437;-76
2024/02/10 01:22:25;;;;;;;9.35;6.20;;;;;;;;;;5078873;28;20094;-76
2024/02/10 01:24:54;;;;;;;11.18;6.90;;;;;;;;;;5076145;28;20458;-76
2024/02/10 01:27:19;;;;;;;8.18;5.18;;;;;;;;;;5072292;28;20044;-76
2024/02/10 01:29:45;;;;;;;8.65;5.63;;;;;;;;;;5073077;28;20090;-76
2024/02/10 01:32:10;;;;;;;10.88;5.53;;;;;;;;;;5081745;28;20030;-76
2024/02/10 01:34:35;;;;;;;12.80;4.82;;;;;;;;;;5074794;28;20031;-76
2024/02/10 01:37:01;;;;;;;9.55;6.30;;;;;;;;;;5072215;28;20408;-76
2024/02/10 01:39:26;;;;;;;8.90;6.15;;;;;;;;;;5072630;28;20021;-76
2024/02/10 01:41:54;;;;;;;12.47;7.77;;;;;;;;;;5076683;28;20101;-76
2024/02/10 01:44:19;;;;;;;11.05;5.93;;;;;;;;;;5071676;28;20316;-76
2024/02/10 01:46:44;;;;;;;9.35;6.00;;;;;;;;;;5072282;28;20071;-76
2024/02/10 01:49:10;;;;;;;9.20;5.20;;;;;;;;;;5072046;28;20603;-76
2024/02/10 01:51:35;;;;;;;9.38;5.15;;;;;;;;;;5077849;28;20028;-76
2024/02/10 01:54:03;;;;;;;9.95;5.70;;;;;;;;;;5077459;28;20051;-76
2024/02/10 01:56:29;;;;;;;8.82;5.90;;;;;;;;;;5081096;28;20036;-76
2024/02/10 01:58:56;;;;;;;12.18;6.88;;;;;;;;;;5070468;28;20145;-76
2024/02/10 02:01:22;;;;;;;10.35;7.32;;;;;;;;;;5076536;28;20024;-76
2024/02/10 02:03:47;;;;;;;10.32;5.63;;;;;;;;;;5071526;28;20410;-76
2024/02/10 02:06:13;;;;;;;8.73;5.57;;;;;;;;;;5071651;28;20028;-76
2024/02/10 02:08:39;;;;;;;9.90;5.82;;;;;;;;;;5071730;28;20037;-76
2024/02/10 02:11:04;;;;;;;9.88;6.40;;;;;;;;;;5075001;28;20484;-76
2024/02/10 02:13:30;;;;;;;8.43;5.60;;;;;;;;;;5071186;28;20025;-76
2024/02/10 02:15:57;;;;;;;8.35;4.80;;;;;;;;;;5076900;28;20032;-76
2024/02/10 02:18:22;;;;;;;8.02;5.28;;;;;;;;;;5077120;28;20032;-76
2024/02/10 02:20:48;;;;;;;8.20;5.32;;;;;;;;;;5082548;28;20039;-76
2024/02/10 02:23:14;;;;;;;8.60;4.85;;;;;;;;;;5070986;28;20481;-76
2024/02/10 02:25:40;;;;;;;8.43;5.20;;;;;;;;;;5071153;28;20083;-76
2024/02/10 02:28:05;;;;;;;9.77;5.93;;;;;;;;;;5071118;28;20040;-76
2024/02/10 02:30:34;;;;;;;9.10;4.90;;;;;;;;;;5073396;28;20393;-76
2024/02/10 02:32:59;;;;;;;10.73;5.38;;;;;;;;;;5071973;28;20039;-76
2024/02/10 02:35:25;;;;;;;8.90;4.80;;;;;;;;;;5069797;28;20040;-76
2024/02/10 02:37:50;;;;;;;7.65;4.85;;;;;;;;;;5071085;28;20059;-76
2024/02/10 02:40:16;;;;;;;9.80;5.40;;;;;;;;;;5070735;28;20060;-76
2024/02/10 02:42:41;;;;;;;7.55;4.95;;;;;;;;;;5076462;28;20430;-75
2024/02/10 02:45:07;;;;;;;10.20;5.15;;;;;;;;;;5069201;28;20036;-76
2024/02/10 02:47:34;;;;;;;7.63;4.95;;;;;;;;;;5071025;28;20519;-76
2024/02/10 02:49:59;;;;;;;8.90;5.60;;;;;;;;;;5069296;28;20206;-76
2024/02/10 02:52:27;;;;;;;9.25;5.40;;;;;;;;;;5075891;28;20120;-76
2024/02/10 02:54:53;;;;;;;9.73;6.07;;;;;;;;;;5070289;28;20028;-76
2024/02/10 02:57:18;;;;;;;8.45;4.50;;;;;;;;;;5070596;28;20408;-76
2024/02/10 02:59:46;;;;;;;10.63;5.97;;;;;;;;;;5070335;28;20036;-76
2024/02/10 03:02:12;;;;;;;9.70;5.70;;;;;;;;;;5075520;28;20028;-76
2024/02/10 03:04:39;;;;;;;8.35;5.22;;;;;;;;;;5070297;28;20516;-76
2024/02/10 03:07:04;;;;;;;9.57;5.97;;;;;;;;;;5070511;28;20502;-76
2024/02/10 03:09:29;;;;;;;10.70;5.88;;;;;;;;;;5070375;28;20020;-76
2024/02/10 03:11:54;;;;;;;9.53;6.07;;;;;;;;;;5073596;28;20064;-76
2024/02/10 03:14:19;;;;;;;8.57;5.82;;;;;;;;;;5070180;28;20290;-76
2024/02/10 03:16:45;;;;;;;9.02;5.90;;;;;;;;;;5070728;28;20089;-76
2024/02/10 03:19:10;;;;;;;7.97;5.55;;;;;;;;;;5069032;28;20111;-76
2024/02/10 03:21:35;;;;;;;8.35;5.32;;;;;;;;;;5074673;28;20031;-76
2024/02/10 03:24:03;;;;;;;9.60;5.53;;;;;;;;;;5069800;28;20334;-76
2024/02/10 03:26:31;;;;;;;7.55;5.43;;;;;;;;;;5072811;28;20044;-76
2024/02/10 03:28:57;;;;;;;7.55;5.47;;;;;;;;;;5070131;28;20032;-76
2024/02/10 03:31:22;;;;;;;6.70;4.68;;;;;;;;;;5079918;28;20113;-76
2024/02/10 03:33:47;;;;;;;7.03;5.00;;;;;;;;;;5070279;28;20111;-76
2024/02/10 03:36:13;;;;;;;8.60;5.83;;;;;;;;;;5070025;28;20262;-76
2024/02/10 03:38:38;;;;;;;6.97;3.97;;;;;;;;;;5070130;28;20634;-76
2024/02/10 03:41:03;;;;;;;5.97;4.07;;;;;;;;;;5073775;28;20035;-76
2024/02/10 03:43:29;;;;;;;6.80;4.88;;;;;;;;;;5069926;28;20507;-76
2024/02/10 03:45:55;;;;;;;6.75;4.55;;;;;;;;;;5068899;28;20090;-76
2024/02/10 03:48:20;;;;;;;8.35;5.25;;;;;;;;;;5070157;28;20025;-76
2024/02/10 03:50:45;;;;;;;10.80;6.00;;;;;;;;;;5072918;28;20440;-76
2024/02/10 03:53:10;;;;;;;6.75;4.38;;;;;;;;;;5070626;28;20029;-76
2024/02/10 03:55:38;;;;;;;6.05;4.20;;;;;;;;;;5069624;28;20090;-76
2024/02/10 03:58:03;;;;;;;7.50;5.30;;;;;;;;;;5070171;28;20274;-76
2024/02/10 04:00:29;;;;;;;9.40;5.75;;;;;;;;;;5070428;28;20032;-76
2024/02/10 04:02:54;;;;;;;9.05;5.00;;;;;;;;;;5079300;28;20032;-76
2024/02/10 04:05:20;;;;;;;8.32;4.72;;;;;;;;;;5069642;28;20464;-76
2024/02/10 04:07:52;;;;;;;7.95;5.18;;;;;;;;;;5067050;28;20033;-76
2024/02/10 04:10:18;;;;;;;7.47;4.35;;;;;;;;;;5071502;28;20404;-76
2024/02/10 04:12:43;;;;;;;8.30;5.13;;;;;;;;;;5077871;28;20032;-76
2024/02/10 04:15:12;;;;;;;7.05;4.63;;;;;;;;;;5076374;28;20028;-76
2024/02/10 04:17:42;;;;;;;6.85;3.90;;;;;;;;;;5071678;28;20082;-76
2024/02/10 04:20:08;;;;;;;7.22;4.85;;;;;;;;;;5076167;28;20528;-76
2024/02/10 04:22:34;;;;;;;6.35;4.45;;;;;;;;;;5073840;28;20112;-76
2024/02/10 04:24:59;;;;;;;6.93;4.47;;;;;;;;;;5073085;28;20087;-76
2024/02/10 04:27:24;;;;;;;7.30;4.80;;;;;;;;;;5073091;28;20032;-76
2024/02/10 04:29:49;;;;;;;7.03;4.10;;;;;;;;;;5074900;28;20437;-76
2024/02/10 04:32:14;;;;;;;7.60;5.13;;;;;;;;;;5080381;28;20576;-76
2024/02/10 04:34:40;;;;;;;6.35;4.03;;;;;;;;;;5073218;28;20548;-76
2024/02/10 04:37:06;;;;;;;10.63;5.30;;;;;;;;;;5073297;28;20047;-76
2024/02/10 04:39:31;;;;;;;6.38;4.40;;;;;;;;;;5073538;28;20033;-76
2024/02/10 04:41:56;;;;;;;6.50;4.28;;;;;;;;;;5076447;28;20028;-76
2024/02/10 04:44:21;;;;;;;6.57;4.15;;;;;;;;;;5084181;28;20029;-76
2024/02/10 04:46:46;;;;;;;6.30;3.95;;;;;;;;;;5073226;28;20174;-76
2024/02/10 04:49:11;;;;;;;6.45;3.75;;;;;;;;;;5073107;28;20043;-76
2024/02/10 04:51:37;;;;;;;7.07;4.97;;;;;;;;;;5074953;28;20434;-76
2024/02/10 04:54:06;;;;;;;6.25;4.30;;;;;;;;;;5072545;28;20283;-76
2024/02/10 04:56:33;;;;;;;8.00;4.63;;;;;;;;;;5072928;28;20119;-76
2024/02/10 04:58:59;;;;;;;8.13;3.83;;;;;;;;;;5073020;28;20408;-76
2024/02/10 05:01:31;;;;;;;8.07;5.07;;;;;;;;;;5075778;28;20024;-76
2024/02/10 05:03:56;;;;;;;6.20;3.67;;;;;;;;;;5072970;28;20058;-76
2024/02/10 05:06:21;;;;;;;6.95;4.00;;;;;;;;;;5072809;28;20115;-76
2024/02/10 05:08:46;;;;;;;6.30;4.20;;;;;;;;;;5073029;28;20040;-76
2024/02/10 05:11:11;;;;;;;5.40;3.38;;;;;;;;;;5075215;28;20043;-76
2024/02/10 05:13:38;;;;;;;5.28;2.90;;;;;;;;;;5072546;28;20036;-76
2024/02/10 05:16:03;;;;;;;6.72;3.60;;;;;;;;;;5072483;28;20036;-76
2024/02/10 05:18:30;;;;;;;5.93;3.42;;;;;;;;;;5072856;28;20025;-76
2024/02/10 05:20:57;;;;;;;4.43;2.70;;;;;;;;;;5073797;28;20404;-76
2024/02/10 05:23:22;;;;;;;4.45;2.65;;;;;;;;;;5071873;28;20036;-76
2024/02/10 05:25:47;;;;;;;5.45;2.80;;;;;;;;;;5072352;28;20040;-76
2024/02/10 05:28:13;;;;;;;4.88;3.15;;;;;;;;;;5072397;28;20507;-76
2024/02/10 05:30:38;;;;;;;5.30;3.00;;;;;;;;;;5072651;28;20071;-76
2024/02/10 05:33:04;;;;;;;6.22;2.95;;;;;;;;;;5074879;28;20033;-76
2024/02/10 05:35:29;;;;;;;8.15;3.97;;;;;;;;;;5071274;28;20424;-76
2024/02/10 05:37:56;;;;;;;5.60;3.15;;;;;;;;;;5074171;28;20169;-76
2024/02/10 05:40:22;;;;;;;5.10;2.95;;;;;;;;;;5078589;28;20064;-76
2024/02/10 05:42:50;;;;;;;4.70;2.88;;;;;;;;;;5073471;28;20070;-76
2024/02/10 05:45:18;;;;;;;6.75;4.45;;;;;;;;;;5071934;28;20023;-76
2024/02/10 05:47:52;;;;;;;6.40;4.00;;;;;;;;;;5072657;28;20028;-76
2024/02/10 05:50:18;;;;;;;4.57;3.08;;;;;;;;;;5071796;28;20036;-76
2024/02/10 05:52:50;;;;;;;7.43;3.90;;;;;;;;;;5074654;28;20133;-76
2024/02/10 05:55:34;;;;;;;5.82;3.20;;;;;;;;;;5071865;28;20476;-76
2024/02/10 05:58:03;;;;;;;6.75;4.40;;;;;;;;;;5071956;28;20064;-76
2024/02/10 06:00:29;;;;;;;5.63;3.10;;;;;;;;;;5074842;28;20033;-76
2024/02/10 06:02:55;;;;;;;5.88;3.42;;;;;;;;;;5087458;28;20031;-76
2024/02/10 06:05:21;;;;;;;7.28;3.47;;;;;;;;;;5071623;28;20037;-76
2024/02/10 06:07:48;;;;;;;4.55;2.60;;;;;;;;;;5071933;28;20370;-76
2024/02/10 06:10:14;;;;;;;5.85;2.80;;;;;;;;;;5069818;28;20080;-76
2024/02/10 06:12:39;;;;;;;6.43;2.90;;;;;;;;;;5079658;28;20074;-76
2024/02/10 06:15:06;;;;;;;6.03;3.25;;;;;;;;;;5071125;28;20413;-76
2024/02/10 06:17:34;;;;;;;4.15;2.85;;;;;;;;;;5071962;28;20107;-76
2024/02/10 06:20:01;;;;;;;7.22;2.70;;;;;;;;;;5070978;28;20420;-76
2024/02/10 06:22:26;;;;;;;5.07;3.20;;;;;;;;;;5073606;28;20036;-76
2024/02/10 06:24:56;;;;;;;4.55;2.53;;;;;;;;;;5071078;28;20097;-76
2024/02/10 06:27:22;;;;;;;4.40;2.65;;;;;;;;;;5075239;28;20595;-76
2024/02/10 06:29:47;;;;;;;4.45;2.17;;;;;;;;;;5069644;28;20033;-76
2024/02/10 06:32:12;;;;;;;3.65;1.98;;;;;;;;;;5076036;28;20107;-76
2024/02/10 06:34:38;;;;;;;8.73;3.85;;;;;;;;;;5071675;28;20064;-76
2024/02/10 06:37:05;;;;;;;5.25;3.33;;;;;;;;;;5070969;28;20103;-76
2024/02/10 06:39:30;;;;;;;4.65;2.80;;;;;;;;;;5073899;28;20040;-76
2024/02/10 06:41:56;;;;;;;5.47;3.30;;;;;;;;;;5072369;28;20024;-76
2024/02/10 06:44:21;;;;;;;5.63;3.00;;;;;;;;;;5076165;28;20039;-76
2024/02/10 06:46:48;;;;;;;4.70;2.78;;;;;;;;;;5071188;28;20040;-76
2024/02/10 06:49:14;;;;;;;4.15;2.47;;;;;;;;;;5070639;28;20066;-76
2024/02/10 06:51:42;;;;;;;6.53;4.25;;;;;;;;;;5073970;28;20084;-76
2024/02/10 06:54:07;;;;;;;7.50;3.80;;;;;;;;;;5070310;28;20032;-76
2024/02/10 06:56:32;;;;;;;5.65;3.38;;;;;;;;;;5070711;28;20050;-76
2024/02/10 06:58:59;;;;;;;6.23;3.70;;;;;;;;;;5070675;28;20488;-76
2024/02/10 07:01:24;;;;;;;5.57;3.97;;;;;;;;;;5071954;28;20274;-76
2024/02/10 07:03:50;;;;;;;8.98;4.78;;;;;;;;;;5071804;28;20033;-76
2024/02/10 07:06:18;;;;;;;7.45;4.05;;;;;;;;;;5070322;28;20021;-76
2024/02/10 07:08:44;;;;;;;8.60;4.32;;;;;;;;;;5070647;28;20058;-76
2024/02/10 07:11:09;;;;;;;8.00;4.85;;;;;;;;;;5071436;28;20038;-76
2024/02/10 07:13:36;;;;;;;8.60;5.50;;;;;;;;;;5070467;28;20100;-76
2024/02/10 07:16:05;;;;;;;9.40;6.00;;;;;;;;;;5070334;28;20028;-76
2024/02/10 07:18:31;;;;;;;9.20;5.90;;;;;;;;;;5070414;28;20401;-76
2024/02/10 07:20:58;;;;;;;10.63;6.32;;;;;;;;;;5071684;28;20037;-76
2024/02/10 07:23:26;;;;;;;8.30;4.57;;;;;;;;;;5070087;28;20032;-76
2024/02/10 07:25:52;;;;;;;9.73;5.90;;;;;;;;;;5070176;28;20036;-76
2024/02/10 07:28:19;;;;;;;10.10;6.18;;;;;;;;;;5070216;28;20032;-76
2024/02/10 07:30:51;;;;;;;8.23;5.03;;;;;;;;;;5070820;28;20040;-76
2024/02/10 07:33:16;;;;;;;8.23;5.35;;;;;;;;;;5073889;28;20036;-76
2024/02/10 07:35:43;;;;;;;8.82;5.75;;;;;;;;;;5070142;28;20094;-76
2024/02/10 07:38:08;;;;;;;9.27;4.97;;;;;;;;;;5070074;28;20086;-76
2024/02/10 07:40:35;;;;;;;8.18;5.20;;;;;;;;;;5070018;28;20036;-76
2024/02/10 07:43:00;;;;;;;10.63;5.40;;;;;;;;;;5070498;28;20036;-76
2024/02/10 07:45:26;;;;;;;7.40;5.18;;;;;;;;;;5069947;28;20039;-76
2024/02/10 07:47:51;;;;;;;7.82;5.18;;;;;;;;;;5070122;28;20404;-76
2024/02/10 07:50:16;;;;;;;8.13;4.82;;;;;;;;;;5069530;28;20809;-76
2024/02/10 07:52:45;;;;;;;10.15;6.10;;;;;;;;;;5071057;28;20412;-76
2024/02/10 07:55:12;;;;;;;8.52;5.20;;;;;;;;;;5074967;28;20392;-76
2024/02/10 07:57:38;;;;;;;8.60;4.97;;;;;;;;;;5077065;28;20508;-76
2024/02/10 08:00:03;;;;;;;8.38;5.32;;;;;;;;;;5076133;28;20028;-76
2024/02/10 08:02:29;;;;;;;7.68;4.93;;;;;;;;;;5078311;28;20107;-77
2024/02/10 08:04:56;;;;;;;8.73;5.13;;;;;;;;;;5076266;28;20170;-76
2024/02/10 08:07:22;;;;;;;8.95;4.25;;;;;;;;;;5075237;28;20041;-76
2024/02/10 08:09:47;;;;;;;6.75;3.88;;;;;;;;;;5085252;28;20032;-76
2024/02/10 08:12:22;;;;;;;6.15;3.97;;;;;;;;;;5076235;28;20041;-77
2024/02/10 08:14:50;;;;;;;9.38;4.30;;;;;;;;;;5083391;28;20528;-76
2024/02/10 08:17:15;;;;;;;7.00;3.95;;;;;;;;;;5076319;28;20017;-76
2024/02/10 08:19:42;;;;;;;8.18;4.15;;;;;;;;;;5076547;28;20497;-76
2024/02/10 08:22:09;;;;;;;6.32;3.65;;;;;;;;;;5075822;28;20032;-76
2024/02/10 08:24:35;;;;;;;7.45;3.45;;;;;;;;;;5076189;28;20064;-76
2024/02/10 08:27:00;;;;;;;7.30;3.95;;;;;;;;;;5076045;28;20052;-76
2024/02/10 08:29:33;;;;;;;6.65;4.50;;;;;;;;;;5076440;28;20055;-76
2024/02/10 08:32:00;;;;;;;7.28;4.20;;;;;;;;;;5081733;28;20063;-76
2024/02/10 08:34:26;;;;;;;7.68;4.38;;;;;;;;;;5077004;28;20035;-76
2024/02/10 08:36:53;;;;;;;6.43;3.95;;;;;;;;;;5080706;28;20111;-77
2024/02/10 08:39:18;;;;;;;6.78;3.95;;;;;;;;;;5075023;28;20037;-76
2024/02/10 08:41:43;;;;;;;7.15;4.43;;;;;;;;;;5077786;28;20054;-76
2024/02/10 08:44:08;;;;;;;8.07;3.83;;;;;;;;;;5075701;28;20051;-76
2024/02/10 08:46:36;;;;;;;6.38;4.25;;;;;;;;;;5076271;28;20278;-76
2024/02/10 08:49:01;;;;;;;10.57;4.65;;;;;;;;;;5074955;28;20039;-76
2024/02/10 08:51:27;;;;;;;6.65;3.83;;;;;;;;;;5079928;28;20020;-76
2024/02/10 08:53:54;;;;;;;6.15;3.28;;;;;;;;;;5075838;28;20106;-76
2024/02/10 08:56:20;;;;;;;6.15;4.05;;;;;;;;;;5075883;28;20413;-76
2024/02/10 08:58:45;;;;;;;6.88;3.55;;;;;;;;;;5074938;28;20043;-76
2024/02/10 09:01:15;;;;;;;7.55;4.25;;;;;;;;;;5074376;28;20051;-76
2024/02/10 09:03:52;;;;;;;7.32;3.67;;;;;;;;;;5075829;28;20027;-76
2024/02/10 09:06:21;;;;;;;6.78;3.63;;;;;;;;;;5076263;28;20405;-76
2024/02/10 09:08:47;;;;;;;5.40;2.92;;;;;;;;;;5076698;28;20037;-76
2024/02/10 09:11:12;;;;;;;5.38;3.10;;;;;;;;;;5077347;28;20048;-76
2024/02/10 09:13:39;;;;;;;6.07;3.33;;;;;;;;;;5076254;28;20703;-76
2024/02/10 09:16:04;;;;;;;5.45;3.20;;;;;;;;;;5072906;28;20746;-76
2024/02/10 09:18:29;;;;;;;6.10;3.45;;;;;;;;;;5073042;28;20029;-76
2024/02/10 09:20:54;;;;;;;5.95;3.80;;;;;;;;;;5072506;28;20041;-76
2024/02/10 09:23:20;;;;;;;6.63;3.90;;;;;;;;;;5078857;28;20025;-76
2024/02/10 09:25:45;;;;;;;5.85;3.45;;;;;;;;;;5078214;28;20035;-76
2024/02/10 09:28:10;;;;;;;6.00;3.67;;;;;;;;;;5072134;28;20043;-76
2024/02/10 09:30:35;;;;;;;6.47;3.65;;;;;;;;;;5072114;28;20024;-76
2024/02/10 09:33:02;;;;;;;5.57;3.50;;;;;;;;;;5080404;28;20025;-76
2024/02/10 09:35:27;;;;;;;5.45;3.42;;;;;;;;;;5072227;28;20266;-76
2024/02/10 09:37:52;;;;;;;5.03;3.37;;;;;;;;;;5072537;28;20668;-76
2024/02/10 09:40:19;;;;;;;7.97;3.33;;;;;;;;;;5071850;28;20282;-76
2024/02/10 09:42:48;;;;;;;5.68;3.33;;;;;;;;;;5076948;28;20078;-76
2024/02/10 09:45:16;;;;;;;6.60;4.18;;;;;;;;;;5071932;28;20040;-76
2024/02/10 09:47:41;;;;;;;7.45;3.63;;;;;;;;;;5072258;28;20040;-76
2024/02/10 09:50:13;;;;;;;6.00;3.45;;;;;;;;;;5071542;28;20408;-76
2024/02/10 09:52:38;;;;;;;6.95;4.20;;;;;;;;;;5080766;28;20032;-76
2024/02/10 09:55:05;;;;;;;10.02;4.20;;;;;;;;;;5072087;28;20024;-76
2024/02/10 09:57:30;;;;;;;8.32;4.85;;;;;;;;;;5077406;28;20492;-76
2024/02/10 09:59:55;;;;;;;6.72;3.80;;;;;;;;;;5078683;28;20028;-76
2024/02/10 10:02:22;;;;;;;5.68;3.35;;;;;;;;;;5079844;28;20104;-76
2024/02/10 10:04:47;;;;;;;5.95;3.60;;;;;;;;;;5072840;28;20070;-76
2024/02/10 10:07:13;;;;;;;6.80;3.85;;;;;;;;;;5070370;28;20037;-76
2024/02/10 10:09:38;;;;;;;4.97;3.03;;;;;;;;;;5071707;28;20502;-76
2024/02/10 10:12:09;;;;;;;6.00;3.28;;;;;;;;;;5078619;28;20309;-76
2024/02/10 10:14:35;;;;;;;7.53;3.60;;;;;;;;;;5070323;28;20485;-76
2024/02/10 10:17:04;;;;;;;4.95;2.78;;;;;;;;;;5071553;28;20031;-76
2024/02/10 10:19:30;;;;;;;5.90;2.53;;;;;;;;;;5071598;28;20105;-76
2024/02/10 10:21:58;;;;;;;6.32;2.88;;;;;;;;;;5075232;28;20500;-76
2024/02/10 10:24:27;;;;;;;4.95;3.20;;;;;;;;;;5077276;28;20034;-76
2024/02/10 10:26:55;;;;;;;5.85;2.78;;;;;;;;;;5071236;28;20043;-76
2024/02/10 10:29:21;;;;;;;5.82;2.45;;;;;;;;;;5071241;28;20025;-77
2024/02/10 10:31:50;;;;;;;5.40;2.80;;;;;;;;;;5076367;28;20059;-77
2024/02/10 10:34:18;;;;;;;5.72;3.35;;;;;;;;;;5072491;28;20082;-76
2024/02/10 10:36:44;;;;;;;5.82;3.53;;;;;;;;;;5071223;28;20028;-76
2024/02/10 10:39:10;;;;;;;4.95;3.05;;;;;;;;;;5072075;28;20020;-77
2024/02/10 10:41:38;;;;;;;6.20;3.53;;;;;;;;;;5074630;28;20031;-76
2024/02/10 10:44:04;;;;;;;6.35;3.17;;;;;;;;;;5071972;28;20028;-76
2024/02/10 10:46:30;;;;;;;6.68;3.72;;;;;;;;;;5071115;28;20477;-77
2024/02/10 10:48:56;;;;;;;7.55;4.00;;;;;;;;;;5071083;28;20028;-76
2024/02/10 10:51:27;;;;;;;6.22;4.03;;;;;;;;;;5071881;28;20436;-76
2024/02/10 10:53:53;;;;;;;8.48;4.45;;;;;;;;;;5075154;28;20056;-76
2024/02/10 10:56:22;;;;;;;7.88;3.40;;;;;;;;;;5071011;28;20072;-76
2024/02/10 10:58:50;;;;;;;6.28;3.70;;;;;;;;;;5070692;28;20119;-76
2024/02/10 11:01:16;;;;;;;6.68;3.50;;;;;;;;;;5070675;28;20039;-76
2024/02/10 11:03:42;;;;;;;6.90;3.67;;;;;;;;;;5075707;28;20029;-76
2024/02/10 11:06:09;;;;;;;5.10;3.25;;;;;;;;;;5069328;28;20060;-76
2024/02/10 11:08:34;;;;;;;7.00;3.75;;;;;;;;;;5069539;28;20039;-76
2024/02/10 11:11:00;;;;;;;5.80;3.30;;;;;;;;;;5070567;28;20400;-77
2024/02/10 11:13:31;;;;;;;5.72;3.08;;;;;;;;;;5075703;28;20282;-77
2024/02/10 11:16:12;;;;;;;5.32;3.30;;;;;;;;;;5070517;28;20029;-77
2024/02/10 11:18:38;;;;;;;6.50;3.17;;;;;;;;;;5074557;28;20032;-76
2024/02/10 11:21:07;;;;;;;5.63;3.53;;;;;;;;;;5069940;28;20029;-76
2024/02/10 11:23:32;;;;;;;6.13;3.53;;;;;;;;;;5076707;28;20449;-76
2024/02/10 11:25:58;;;;;;;6.28;3.20;;;;;;;;;;5070463;28;20036;-76
2024/02/10 11:28:26;;;;;;;6.05;3.00;;;;;;;;;;5070070;28;20063;-76
2024/02/10 11:30:51;;;;;;;6.55;3.25;;;;;;;;;;5069869;28;20436;-76
2024/02/10 11:33:18;;;;;;;5.55;3.17;;;;;;;;;;5075302;28;20177;-76
2024/02/10 11:35:44;;;;;;;7.68;4.35;;;;;;;;;;5077376;28;20032;-76
2024/02/10 11:38:09;;;;;;;6.75;3.35;;;;;;;;;;5072509;28;20024;-76
2024/02/10 11:40:34;;;;;;;5.18;2.92;;;;;;;;;;5069853;28;20028;-77
2024/02/10 11:43:00;;;;;;;5.85;3.33;;;;;;;;;;5074361;28;20029;-76
2024/02/10 11:45:26;;;;;;;5.82;3.20;;;;;;;;;;5076637;28;20540;-76
2024/02/10 11:47:55;;;;;;;7.65;3.05;;;;;;;;;;5070121;28;20041;-76
2024/02/10 11:50:20;;;;;;;5.78;3.42;;;;;;;;;;5069561;28;20036;-76
2024/02/10 11:52:46;;;;;;;5.28;3.53;;;;;;;;;;5075447;28;20028;-76
2024/02/10 11:55:11;;;;;;;5.55;3.13;;;;;;;;;;5069716;28;20078;-76
2024/02/10 11:57:37;;;;;;;5.57;3.05;;;;;;;;;;5070416;28;20519;-76
2024/02/10 12:00:04;;;;;;;8.00;3.42;;;;;;;;;;5069397;28;20085;-76
2024/02/10 12:02:32;;;;;;;6.50;3.20;;;;;;;;;;5077904;28;20032;-76
2024/02/10 12:04:58;;;;;;;6.35;3.88;;;;;;;;;;5077315;28;20063;-76
2024/02/10 12:07:26;;;;;;;6.38;3.92;;;;;;;;;;5069864;28;20029;-76
2024/02/10 12:09:51;;;;;;;9.18;3.50;;;;;;;;;;5070825;28;20409;-77
2024/02/10 12:12:16;;;;;;;8.98;3.67;;;;;;;;;;5075463;28;20031;-76
2024/02/10 12:14:41;;;;;;;8.65;3.15;;;;;;;;;;5068027;28;20115;-76
2024/02/10 12:17:07;;;;;;;7.47;3.77;;;;;;;;;;5069835;28;20055;-77
2024/02/10 12:19:40;;;;;;;7.20;4.15;;;;;;;;;;5069941;28;20720;-77
2024/02/10 12:22:09;;;;;;;7.63;4.95;;;;;;;;;;5073655;28;20035;-76
2024/02/10 12:24:34;;;;;;;8.77;4.30;;;;;;;;;;5071611;28;20485;-76
2024/02/10 12:26:59;;;;;;;6.25;3.08;;;;;;;;;;5069492;28;20036;-76
2024/02/10 12:29:28;;;;;;;6.50;4.00;;;;;;;;;;5073510;28;20381;-76
2024/02/10 12:31:53;;;;;;;6.28;3.67;;;;;;;;;;5073635;28;20282;-76
2024/02/10 12:34:18;;;;;;;5.23;3.07;;;;;;;;;;5070411;28;20033;-76
2024/02/10 12:36:45;;;;;;;5.43;3.42;;;;;;;;;;5070739;28;20648;-76
2024/02/10 12:39:10;;;;;;;6.78;3.25;;;;;;;;;;5069471;28;20583;-76
2024/02/10 12:41:36;;;;;;;7.13;3.50;;;;;;;;;;5070923;28;20111;-77
2024/02/10 12:44:01;;;;;;;6.75;3.60;;;;;;;;;;5073725;28;20659;-76
2024/02/10 12:46:27;;;;;;;7.47;3.35;;;;;;;;;;5075479;28;20142;-77
2024/02/10 12:48:53;;;;;;;7.10;3.30;;;;;;;;;;5073340;28;20024;-77
2024/02/10 12:51:18;;;;;;;6.27;4.00;;;;;;;;;;5072626;28;20046;-76
2024/02/10 12:53:43;;;;;;;5.90;3.10;;;;;;;;;;5078195;28;20274;-77
2024/02/10 12:56:10;;;;;;;7.67;3.97;;;;;;;;;;5073058;28;20059;-77
2024/02/10 12:58:35;;;;;;;5.68;3.42;;;;;;;;;;5078769;28;20383;-76
2024/02/10 13:01:00;;;;;;;6.72;3.25;;;;;;;;;;5072968;28;20112;-76
2024/02/10 13:03:26;;;;;;;6.17;2.87;;;;;;;;;;5076619;28;20025;-76
2024/02/10 13:05:51;;;;;;;5.90;3.80;;;;;;;;;;5073095;28;20385;-77
2024/02/10 13:08:17;;;;;;;6.05;3.63;;;;;;;;;;5072772;28;20340;-77
2024/02/10 13:10:45;;;;;;;5.90;3.40;;;;;;;;;;5077074;28;20110;-76
2024/02/10 13:13:10;;;;;;;6.03;3.95;;;;;;;;;;5077516;28;20028;-77
2024/02/10 13:15:38;;;;;;;5.97;3.73;;;;;;;;;;5072986;28;20036;-77
2024/02/10 13:18:03;;;;;;;6.78;3.67;;;;;;;;;;5072698;28;20271;-76
2024/02/10 13:20:28;;;;;;;7.72;4.20;;;;;;;;;;5072327;28;20550;-77
2024/02/10 13:22:54;;;;;;;6.73;4.30;;;;;;;;;;5076283;28;20037;-76
2024/02/10 13:25:20;;;;;;;5.38;3.80;;;;;;;;;;5072271;28;20887;-77
2024/02/10 13:27:49;;;;;;;6.70;4.07;;;;;;;;;;5072389;28;20117;-77
2024/02/10 13:30:17;;;;;;;6.30;4.40;;;;;;;;;;5074181;28;20392;-76
2024/02/10 13:32:42;;;;;;;6.30;3.95;;;;;;;;;;5077358;28;20543;-77
2024/02/10 13:35:14;;;;;;;7.20;4.22;;;;;;;;;;5072171;28;20056;-76
2024/02/10 14:04:56;;;;;;;8.40;5.38;;;;;;;;;;5075701;28;20066;-77
2024/02/10 14:12:53;;;;;;;7.88;5.00;;;;;;;;;;5076732;28;20020;-76
2024/02/10 14:15:29;;;;;;;9.63;5.80;;;;;;;;;;5071241;28;20105;-77
2024/02/10 14:17:58;;;;;;;7.70;5.30;;;;;;;;;;5073810;28;20443;-76
2024/02/10 14:20:27;;;;;;;8.18;4.80;;;;;;;;;;5071199;28;20553;-76
2024/02/10 14:22:53;;;;;;;8.05;5.03;;;;;;;;;;5075584;28;20493;-76
2024/02/10 14:25:27;;;;;;;8.48;5.85;;;;;;;;;;5071179;28;20048;-77
2024/02/10 14:28:00;;;;;;;8.68;5.22;;;;;;;;;;5071136;28;20064;-76
2024/02/10 14:30:31;;;;;;;;;;;;;;;;;;5078465;28;20033;-76
2024/02/10 14:33:08;;;;;;;7.47;5.03;;;;;;;;;;5076472;28;19969;-76
2024/02/10 14:35:49;;;;;;;8.75;5.80;;;;;;;;;;5077824;28;20058;-76
2024/02/10 14:38:24;;;;;;;8.40;5.65;;;;;;;;;;5071196;28;20032;-76
2024/02/10 14:40:55;;;;;;;10.00;5.30;;;;;;;;;;5071358;28;20388;-76
2024/02/10 14:43:23;;;;;;;8.07;4.78;;;;;;;;;;5074447;28;20051;-76
2024/02/10 14:45:48;;;;;;;9.65;5.50;;;;;;;;;;5074546;28;20040;-76
2024/02/10 14:48:16;;;;;;;8.70;5.50;;;;;;;;;;5070854;28;20029;-76
2024/02/10 14:50:44;;;;;;;9.50;5.85;;;;;;;;;;5070585;28;20380;-76
2024/02/10 14:53:12;;;;;;;7.68;5.30;;;;;;;;;;5074490;28;20123;-76
2024/02/10 14:55:38;;;;;;;8.10;5.47;;;;;;;;;;5070627;28;20074;-76
2024/02/10 14:58:08;;;;;;;7.47;5.00;;;;;;;;;;5070717;28;20482;-76
2024/02/10 15:00:33;;;;;;;7.28;5.22;;;;;;;;;;5075862;28;20029;-76
2024/02/10 15:03:02;;;;;;;7.90;5.18;;;;;;;;;;5074239;28;20066;-76
2024/02/10 15:05:27;;;;;;;8.38;5.25;;;;;;;;;;5070545;28;20034;-76
2024/02/10 15:07:53;;;;;;;7.28;5.35;;;;;;;;;;5070427;28;20468;-76
2024/02/10 15:10:18;;;;;;;7.60;5.15;;;;;;;;;;5070050;28;20037;-76
2024/02/10 15:12:43;;;;;;;9.07;5.57;;;;;;;;;;5074000;28;20028;-76